createdAt,value
2016-12-01T00:00:22.634Z,1021.5
2016-12-01T00:00:48.720Z,1021.54
2016-12-01T00:01:14.804Z,1021.53
2016-12-01T00:01:40.905Z,1021.5
2016-12-01T00:02:06.996Z,1021.5
2016-12-01T00:02:33.092Z,1021.47
2016-12-01T00:02:59.179Z,1021.51
2016-12-01T00:03:25.263Z,1021.48
2016-12-01T00:03:51.360Z,1021.46
2016-12-01T00:04:17.454Z,1021.5
2016-12-01T00:04:43.540Z,1021.51
2016-12-01T00:05:09.659Z,1021.55
2016-12-01T00:05:35.751Z,1021.47
2016-12-01T00:06:01.829Z,1021.44
2016-12-01T00:06:27.926Z,1021.46
2016-12-01T00:06:54.022Z,1021.41
2016-12-01T00:07:20.101Z,1021.46
2016-12-01T00:07:46.219Z,1021.42
2016-12-01T00:08:12.310Z,1021.41
2016-12-01T00:08:38.406Z,1021.42
2016-12-01T00:09:04.496Z,1021.41
2016-12-01T00:09:30.578Z,1021.34
2016-12-01T00:09:56.672Z,1021.35
2016-12-01T00:10:22.773Z,1021.38
2016-12-01T00:10:48.853Z,1021.35
2016-12-01T00:11:14.951Z,1021.4
2016-12-01T00:11:41.044Z,1021.42
2016-12-01T00:12:07.132Z,1021.43
2016-12-01T00:12:33.223Z,1021.45
2016-12-01T00:12:59.320Z,1021.43
2016-12-01T00:13:25.402Z,1021.44
2016-12-01T00:13:51.503Z,1021.37
2016-12-01T00:14:17.586Z,1021.43
2016-12-01T00:14:43.681Z,1021.41
2016-12-01T00:15:09.782Z,1021.4
2016-12-01T00:15:35.869Z,1021.42
2016-12-01T00:16:01.960Z,1021.38
2016-12-01T00:16:28.061Z,1021.38
2016-12-01T00:16:54.157Z,1021.38
2016-12-01T00:17:20.241Z,1021.44
2016-12-01T00:17:46.337Z,1021.42
2016-12-01T00:18:12.423Z,1021.43
2016-12-01T00:18:38.508Z,1021.37
2016-12-01T00:19:04.607Z,1021.37
2016-12-01T00:19:30.690Z,1021.4
2016-12-01T00:19:56.790Z,1021.43
2016-12-01T00:20:22.878Z,1021.4
2016-12-01T00:20:48.967Z,1021.39
2016-12-01T00:21:15.069Z,1021.42
2016-12-01T00:21:41.153Z,1021.39
2016-12-01T00:22:07.239Z,1021.4
2016-12-01T00:22:33.338Z,1021.35
2016-12-01T00:22:59.430Z,1021.39
2016-12-01T00:23:25.513Z,1021.39
2016-12-01T00:23:51.610Z,1021.32
2016-12-01T00:24:17.704Z,1021.37
2016-12-01T00:24:43.794Z,1021.42
2016-12-01T00:25:09.880Z,1021.4
2016-12-01T00:25:35.967Z,1021.38
2016-12-01T00:26:02.067Z,1021.41
2016-12-01T00:26:28.155Z,1021.37
2016-12-01T00:26:54.239Z,1021.39
2016-12-01T00:27:20.330Z,1021.37
2016-12-01T00:27:46.428Z,1021.37
2016-12-01T00:28:12.508Z,1021.4
2016-12-01T00:28:38.596Z,1021.4
2016-12-01T00:29:04.691Z,1021.37
2016-12-01T00:29:30.777Z,1021.37
2016-12-01T00:29:56.868Z,1021.35
2016-12-01T00:30:22.954Z,1021.34
2016-12-01T00:30:49.052Z,1021.36
2016-12-01T00:31:15.147Z,1021.4
2016-12-01T00:31:41.233Z,1021.42
2016-12-01T00:32:07.329Z,1021.3
2016-12-01T00:32:33.425Z,1021.34
2016-12-01T00:32:59.510Z,1021.33
2016-12-01T00:33:25.600Z,1021.4
2016-12-01T00:33:51.694Z,1021.41
2016-12-01T00:34:17.781Z,1021.4
2016-12-01T00:34:43.866Z,1021.39
2016-12-01T00:35:09.963Z,1021.44
2016-12-01T00:35:36.049Z,1021.46
2016-12-01T00:36:02.134Z,1021.42
2016-12-01T00:36:28.235Z,1021.42
2016-12-01T00:36:54.325Z,1021.44
2016-12-01T00:37:20.405Z,1021.41
2016-12-01T00:37:46.500Z,1021.38
2016-12-01T00:38:12.596Z,1021.42
2016-12-01T00:38:38.673Z,1021.38
2016-12-01T00:39:04.763Z,1021.4
2016-12-01T00:39:30.859Z,1021.37
2016-12-01T00:39:56.942Z,1021.35
2016-12-01T00:40:23.027Z,1021.34
2016-12-01T00:40:49.121Z,1021.28
2016-12-01T00:41:15.208Z,1021.3
2016-12-01T00:41:41.312Z,1021.26
2016-12-01T00:42:07.392Z,1021.34
2016-12-01T00:42:33.479Z,1021.34
2016-12-01T00:42:59.580Z,1021.35
2016-12-01T00:43:25.665Z,1021.34
2016-12-01T00:43:51.751Z,1021.33
2016-12-01T00:44:17.846Z,1021.34
2016-12-01T00:44:43.936Z,1021.37
2016-12-01T00:45:10.020Z,1021.37
2016-12-01T00:45:36.121Z,1021.36
2016-12-01T00:46:02.207Z,1021.32
2016-12-01T00:46:28.293Z,1021.32
2016-12-01T00:46:54.391Z,1021.34
2016-12-01T00:47:20.475Z,1021.29
2016-12-01T00:47:46.573Z,1021.34
2016-12-01T00:48:12.659Z,1021.38
2016-12-01T00:48:38.744Z,1021.42
2016-12-01T00:49:04.844Z,1021.38
2016-12-01T00:49:30.960Z,1021.41
2016-12-01T00:49:57.043Z,1021.34
2016-12-01T00:50:23.139Z,1021.34
2016-12-01T00:50:49.228Z,1021.35
2016-12-01T00:51:15.328Z,1021.34
2016-12-01T00:51:41.421Z,1021.3
2016-12-01T00:52:07.519Z,1021.28
2016-12-01T00:52:33.603Z,1021.27
2016-12-01T00:52:59.691Z,1021.23
2016-12-01T00:53:25.775Z,1021.23
2016-12-01T00:53:51.869Z,1021.31
2016-12-01T00:54:17.958Z,1021.24
2016-12-01T00:54:44.343Z,1021.25
2016-12-01T00:55:10.434Z,1021.23
2016-12-01T00:55:36.533Z,1021.23
2016-12-01T00:56:02.613Z,1021.19
2016-12-01T00:56:28.707Z,1021.21
2016-12-01T00:56:54.806Z,1021.2
2016-12-01T00:57:20.888Z,1021.18
2016-12-01T00:57:46.977Z,1021.17
2016-12-01T00:58:13.067Z,1021.19
2016-12-01T00:58:39.164Z,1021.15
2016-12-01T00:59:05.264Z,1021.18
2016-12-01T00:59:31.350Z,1021.18
2016-12-01T00:59:57.437Z,1021.21
2016-12-01T01:00:23.557Z,1021.19
2016-12-01T01:00:49.639Z,1021.2
2016-12-01T01:01:15.728Z,1021.15
2016-12-01T01:01:41.826Z,1021.17
2016-12-01T01:02:07.911Z,1021.19
2016-12-01T01:02:33.996Z,1021.18
2016-12-01T01:03:00.093Z,1021.18
2016-12-01T01:03:26.188Z,1021.18
2016-12-01T01:03:52.278Z,1021.18
2016-12-01T01:04:18.362Z,1021.18
2016-12-01T01:04:44.453Z,1021.21
2016-12-01T01:05:10.550Z,1021.18
2016-12-01T01:05:36.633Z,1021.23
2016-12-01T01:06:02.718Z,1021.19
2016-12-01T01:06:28.823Z,1021.22
2016-12-01T01:06:54.913Z,1021.23
2016-12-01T01:07:20.995Z,1021.22
2016-12-01T01:07:47.093Z,1021.2
2016-12-01T01:08:13.188Z,1021.2
2016-12-01T01:08:39.270Z,1021.21
2016-12-01T01:09:05.362Z,1021.13
2016-12-01T01:09:31.447Z,1021.14
2016-12-01T01:09:57.546Z,1021.12
2016-12-01T01:10:23.636Z,1021.08
2016-12-01T01:10:49.721Z,1021.08
2016-12-01T01:11:15.813Z,1021.1
2016-12-01T01:11:41.905Z,1021.1
2016-12-01T01:12:07.988Z,1021.05
2016-12-01T01:12:34.085Z,1021.07
2016-12-01T01:13:00.178Z,1021.08
2016-12-01T01:13:26.258Z,1021.06
2016-12-01T01:13:52.351Z,1021.1
2016-12-01T01:14:18.447Z,1021.09
2016-12-01T01:14:44.525Z,1021.07
2016-12-01T01:15:10.617Z,1021.07
2016-12-01T01:15:36.704Z,1021.05
2016-12-01T01:16:02.798Z,1021.12
2016-12-01T01:16:28.898Z,1021.11
2016-12-01T01:16:54.976Z,1021.12
2016-12-01T01:17:21.070Z,1021.13
2016-12-01T01:17:47.167Z,1021.14
2016-12-01T01:18:13.250Z,1021.16
2016-12-01T01:18:39.340Z,1021.11
2016-12-01T01:19:05.435Z,1021.15
2016-12-01T01:19:31.520Z,1021.11
2016-12-01T01:19:57.608Z,1021.12
2016-12-01T01:20:23.708Z,1021.02
2016-12-01T01:20:49.797Z,1021.06
2016-12-01T01:21:15.906Z,1021.08
2016-12-01T01:21:42.005Z,1021.05
2016-12-01T01:22:08.097Z,1021.08
2016-12-01T01:22:34.185Z,1021.07
2016-12-01T01:23:00.282Z,1021.12
2016-12-01T01:23:26.375Z,1021.09
2016-12-01T01:23:52.461Z,1021.1
2016-12-01T01:24:18.551Z,1021.05
2016-12-01T01:24:44.652Z,1021.11
2016-12-01T01:25:11.034Z,1021.14
2016-12-01T01:25:37.126Z,1021.14
2016-12-01T01:26:03.218Z,1021.14
2016-12-01T01:26:29.314Z,1021.14
2016-12-01T01:26:55.406Z,1021.06
2016-12-01T01:27:21.488Z,1021.13
2016-12-01T01:27:47.575Z,1021.13
2016-12-01T01:28:13.675Z,1021.08
2016-12-01T01:28:39.761Z,1021.05
2016-12-01T01:29:05.853Z,1021.06
2016-12-01T01:29:31.949Z,1021.06
2016-12-01T01:29:58.030Z,1021.07
2016-12-01T01:30:24.116Z,1021.1
2016-12-01T01:30:50.211Z,1021.11
2016-12-01T01:31:16.308Z,1021.07
2016-12-01T01:31:42.399Z,1021.07
2016-12-01T01:32:08.483Z,1021.1
2016-12-01T01:32:34.573Z,1021.11
2016-12-01T01:33:00.669Z,1021.07
2016-12-01T01:33:26.752Z,1021.02
2016-12-01T01:33:52.834Z,1021.05
2016-12-01T01:34:18.934Z,1021.02
2016-12-01T01:34:45.026Z,1021.05
2016-12-01T01:35:11.110Z,1020.98
2016-12-01T01:35:37.203Z,1020.9
2016-12-01T01:36:03.298Z,1020.9
2016-12-01T01:36:29.384Z,1020.94
2016-12-01T01:36:55.482Z,1020.93
2016-12-01T01:37:21.565Z,1020.98
2016-12-01T01:37:47.670Z,1020.99
2016-12-01T01:38:13.761Z,1020.98
2016-12-01T01:38:39.842Z,1021
2016-12-01T01:39:05.939Z,1021.01
2016-12-01T01:39:32.032Z,1020.97
2016-12-01T01:39:58.115Z,1021.05
2016-12-01T01:40:24.211Z,1021.08
2016-12-01T01:40:50.308Z,1021.09
2016-12-01T01:41:16.385Z,1021.08
2016-12-01T01:41:42.479Z,1021.15
2016-12-01T01:42:08.578Z,1021.19
2016-12-01T01:42:34.662Z,1021.1
2016-12-01T01:43:00.760Z,1021.16
2016-12-01T01:43:26.843Z,1021.11
2016-12-01T01:43:52.935Z,1021.11
2016-12-01T01:44:19.032Z,1021.13
2016-12-01T01:44:45.115Z,1021.1
2016-12-01T01:45:11.208Z,1021.06
2016-12-01T01:45:37.302Z,1021.07
2016-12-01T01:46:03.388Z,1021.05
2016-12-01T01:46:29.481Z,1021.11
2016-12-01T01:46:55.578Z,1021.08
2016-12-01T01:47:21.665Z,1021.05
2016-12-01T01:47:47.751Z,1021.09
2016-12-01T01:48:13.850Z,1021.12
2016-12-01T01:48:39.940Z,1021.14
2016-12-01T01:49:06.039Z,1021.08
2016-12-01T01:49:32.119Z,1021.13
2016-12-01T01:49:58.211Z,1021.14
2016-12-01T01:50:24.305Z,1021.11
2016-12-01T01:50:50.384Z,1021.16
2016-12-01T01:51:16.470Z,1021.11
2016-12-01T01:51:42.576Z,1021.12
2016-12-01T01:52:08.661Z,1021.23
2016-12-01T01:52:34.743Z,1021.17
2016-12-01T01:53:00.841Z,1021.18
2016-12-01T01:53:26.930Z,1021.2
2016-12-01T01:53:53.026Z,1021.22
2016-12-01T01:54:19.110Z,1021.15
2016-12-01T01:54:45.193Z,1021.15
2016-12-01T01:55:11.592Z,1021.19
2016-12-01T01:55:37.684Z,1021.09
2016-12-01T01:56:03.772Z,1021.14
2016-12-01T01:56:29.864Z,1021.11
2016-12-01T01:56:55.954Z,1021.1
2016-12-01T01:57:22.037Z,1021.05
2016-12-01T01:57:48.134Z,1021.03
2016-12-01T01:58:14.232Z,1020.98
2016-12-01T01:58:40.316Z,1021.09
2016-12-01T01:59:06.407Z,1021.01
2016-12-01T01:59:32.490Z,1020.96
2016-12-01T01:59:58.585Z,1020.94
2016-12-01T02:00:24.677Z,1020.94
2016-12-01T02:00:50.760Z,1020.88
2016-12-01T02:01:16.854Z,1020.88
2016-12-01T02:01:42.957Z,1020.87
2016-12-01T02:02:09.038Z,1020.92
2016-12-01T02:02:35.136Z,1020.96
2016-12-01T02:03:01.227Z,1020.86
2016-12-01T02:03:27.344Z,1020.92
2016-12-01T02:03:53.438Z,1020.92
2016-12-01T02:04:19.539Z,1020.92
2016-12-01T02:04:45.626Z,1020.89
2016-12-01T02:05:11.707Z,1020.9
2016-12-01T02:05:37.807Z,1020.88
2016-12-01T02:06:03.895Z,1020.88
2016-12-01T02:06:29.978Z,1020.85
2016-12-01T02:06:56.074Z,1020.86
2016-12-01T02:07:22.162Z,1020.84
2016-12-01T02:07:48.242Z,1020.88
2016-12-01T02:08:14.335Z,1020.87
2016-12-01T02:08:40.436Z,1020.87
2016-12-01T02:09:06.514Z,1020.92
2016-12-01T02:09:32.609Z,1020.88
2016-12-01T02:09:58.705Z,1020.84
2016-12-01T02:10:24.800Z,1020.83
2016-12-01T02:10:50.900Z,1020.85
2016-12-01T02:11:16.979Z,1020.75
2016-12-01T02:11:43.073Z,1020.73
2016-12-01T02:12:09.168Z,1020.83
2016-12-01T02:12:35.246Z,1020.78
2016-12-01T02:13:01.336Z,1020.73
2016-12-01T02:13:27.433Z,1020.75
2016-12-01T02:13:53.514Z,1020.69
2016-12-01T02:14:19.605Z,1020.68
2016-12-01T02:14:45.701Z,1020.66
2016-12-01T02:15:11.785Z,1020.68
2016-12-01T02:15:37.875Z,1020.62
2016-12-01T02:16:03.998Z,1020.71
2016-12-01T02:16:30.086Z,1020.7
2016-12-01T02:16:56.183Z,1020.73
2016-12-01T02:17:22.260Z,1020.69
2016-12-01T02:17:48.349Z,1020.73
2016-12-01T02:18:14.444Z,1020.71
2016-12-01T02:18:40.530Z,1020.77
2016-12-01T02:19:06.613Z,1020.72
2016-12-01T02:19:32.718Z,1020.74
2016-12-01T02:19:58.805Z,1020.78
2016-12-01T02:20:24.892Z,1020.75
2016-12-01T02:20:50.988Z,1020.76
2016-12-01T02:21:17.079Z,1020.73
2016-12-01T02:21:43.172Z,1020.8
2016-12-01T02:22:09.258Z,1020.79
2016-12-01T02:22:35.336Z,1020.75
2016-12-01T02:23:01.443Z,1020.73
2016-12-01T02:23:27.531Z,1020.72
2016-12-01T02:23:53.616Z,1020.74
2016-12-01T02:24:19.713Z,1020.75
2016-12-01T02:24:45.802Z,1020.75
2016-12-01T02:25:11.883Z,1020.69
2016-12-01T02:25:37.976Z,1020.73
2016-12-01T02:26:04.074Z,1020.71
2016-12-01T02:26:30.157Z,1020.71
2016-12-01T02:26:56.245Z,1020.71
2016-12-01T02:27:22.329Z,1020.7
2016-12-01T02:27:48.427Z,1020.71
2016-12-01T02:28:14.520Z,1020.7
2016-12-01T02:28:40.601Z,1020.68
2016-12-01T02:29:06.701Z,1020.74
2016-12-01T02:29:32.798Z,1020.67
2016-12-01T02:29:58.883Z,1020.75
2016-12-01T02:30:24.992Z,1020.65
2016-12-01T02:30:51.088Z,1020.68
2016-12-01T02:31:17.171Z,1020.69
2016-12-01T02:31:43.265Z,1020.71
2016-12-01T02:32:09.362Z,1020.71
2016-12-01T02:32:35.450Z,1020.69
2016-12-01T02:33:01.547Z,1020.73
2016-12-01T02:33:27.622Z,1020.72
2016-12-01T02:33:53.714Z,1020.72
2016-12-01T02:34:19.817Z,1020.71
2016-12-01T02:34:45.897Z,1020.7
2016-12-01T02:35:11.989Z,1020.63
2016-12-01T02:35:38.084Z,1020.7
2016-12-01T02:36:04.196Z,1020.69
2016-12-01T02:36:30.277Z,1020.64
2016-12-01T02:36:56.376Z,1020.6
2016-12-01T02:37:22.462Z,1020.65
2016-12-01T02:37:48.546Z,1020.66
2016-12-01T02:38:14.650Z,1020.65
2016-12-01T02:38:40.728Z,1020.63
2016-12-01T02:39:06.827Z,1020.66
2016-12-01T02:39:32.910Z,1020.64
2016-12-01T02:39:58.990Z,1020.62
2016-12-01T02:40:25.120Z,1020.62
2016-12-01T02:40:51.310Z,1020.58
2016-12-01T02:41:17.392Z,1020.58
2016-12-01T02:41:43.494Z,1020.59
2016-12-01T02:42:09.588Z,1020.57
2016-12-01T02:42:35.675Z,1020.62
2016-12-01T02:43:01.796Z,1020.55
2016-12-01T02:43:27.891Z,1020.54
2016-12-01T02:43:53.982Z,1020.53
2016-12-01T02:44:20.065Z,1020.48
2016-12-01T02:44:46.146Z,1020.53
2016-12-01T02:45:12.246Z,1020.5
2016-12-01T02:45:38.339Z,1020.47
2016-12-01T02:46:04.422Z,1020.38
2016-12-01T02:46:30.514Z,1020.41
2016-12-01T02:46:56.613Z,1020.43
2016-12-01T02:47:22.689Z,1020.45
2016-12-01T02:47:48.799Z,1020.43
2016-12-01T02:48:14.902Z,1020.44
2016-12-01T02:48:40.990Z,1020.47
2016-12-01T02:49:07.075Z,1020.41
2016-12-01T02:49:33.172Z,1020.41
2016-12-01T02:49:59.260Z,1020.43
2016-12-01T02:50:25.339Z,1020.41
2016-12-01T02:50:51.441Z,1020.38
2016-12-01T02:51:17.556Z,1020.48
2016-12-01T02:51:43.641Z,1020.4
2016-12-01T02:52:09.741Z,1020.41
2016-12-01T02:52:35.830Z,1020.4
2016-12-01T02:53:01.912Z,1020.4
2016-12-01T02:53:28.037Z,1020.43
2016-12-01T02:53:54.138Z,1020.5
2016-12-01T02:54:20.222Z,1020.38
2016-12-01T02:54:46.316Z,1020.42
2016-12-01T02:55:12.401Z,1020.41
2016-12-01T02:55:38.501Z,1020.41
2016-12-01T02:56:04.592Z,1020.38
2016-12-01T02:56:30.674Z,1020.37
2016-12-01T02:56:56.771Z,1020.35
2016-12-01T02:57:22.871Z,1020.33
2016-12-01T02:57:48.949Z,1020.33
2016-12-01T02:58:15.041Z,1020.36
2016-12-01T02:58:41.142Z,1020.36
2016-12-01T02:59:07.227Z,1020.33
2016-12-01T02:59:33.313Z,1020.36
2016-12-01T02:59:59.408Z,1020.36
2016-12-01T03:00:25.498Z,1020.36
2016-12-01T03:00:51.592Z,1020.37
2016-12-01T03:01:17.672Z,1020.37
2016-12-01T03:01:43.765Z,1020.42
2016-12-01T03:02:09.887Z,1020.41
2016-12-01T03:02:35.968Z,1020.33
2016-12-01T03:03:02.061Z,1020.41
2016-12-01T03:03:28.158Z,1020.38
2016-12-01T03:03:54.240Z,1020.42
2016-12-01T03:04:20.324Z,1020.38
2016-12-01T03:04:46.430Z,1020.38
2016-12-01T03:05:12.515Z,1020.39
2016-12-01T03:05:38.623Z,1020.37
2016-12-01T03:06:04.722Z,1020.35
2016-12-01T03:06:30.808Z,1020.37
2016-12-01T03:06:56.905Z,1020.4
2016-12-01T03:07:22.989Z,1020.4
2016-12-01T03:07:49.068Z,1020.34
2016-12-01T03:08:15.171Z,1020.37
2016-12-01T03:08:41.261Z,1020.35
2016-12-01T03:09:07.347Z,1020.35
2016-12-01T03:09:33.444Z,1020.37
2016-12-01T03:09:59.535Z,1020.32
2016-12-01T03:10:25.623Z,1020.35
2016-12-01T03:10:51.715Z,1020.32
2016-12-01T03:11:17.816Z,1020.29
2016-12-01T03:11:43.903Z,1020.27
2016-12-01T03:12:09.993Z,1020.3
2016-12-01T03:12:36.077Z,1020.31
2016-12-01T03:13:02.171Z,1020.26
2016-12-01T03:13:28.263Z,1020.3
2016-12-01T03:13:54.345Z,1020.28
2016-12-01T03:14:20.440Z,1020.31
2016-12-01T03:14:46.537Z,1020.29
2016-12-01T03:15:12.620Z,1020.38
2016-12-01T03:15:38.714Z,1020.3
2016-12-01T03:16:04.809Z,1020.36
2016-12-01T03:16:30.895Z,1020.33
2016-12-01T03:16:56.979Z,1020.33
2016-12-01T03:17:23.068Z,1020.29
2016-12-01T03:17:49.160Z,1020.31
2016-12-01T03:18:15.261Z,1020.26
2016-12-01T03:18:41.341Z,1020.29
2016-12-01T03:19:07.434Z,1020.34
2016-12-01T03:19:33.531Z,1020.27
2016-12-01T03:19:59.614Z,1020.26
2016-12-01T03:20:25.698Z,1020.29
2016-12-01T03:20:51.797Z,1020.26
2016-12-01T03:21:17.886Z,1020.25
2016-12-01T03:21:43.967Z,1020.25
2016-12-01T03:22:10.073Z,1020.21
2016-12-01T03:22:36.161Z,1020.24
2016-12-01T03:23:02.256Z,1020.24
2016-12-01T03:23:28.341Z,1020.24
2016-12-01T03:23:54.431Z,1020.24
2016-12-01T03:24:20.531Z,1020.31
2016-12-01T03:24:46.620Z,1020.21
2016-12-01T03:25:12.701Z,1020.19
2016-12-01T03:25:38.798Z,1020.21
2016-12-01T03:26:05.183Z,1020.23
2016-12-01T03:26:31.268Z,1020.22
2016-12-01T03:26:57.370Z,1020.21
2016-12-01T03:27:23.453Z,1020.25
2016-12-01T03:27:49.535Z,1020.21
2016-12-01T03:28:15.655Z,1020.09
2016-12-01T03:28:41.743Z,1020.18
2016-12-01T03:29:07.869Z,1020.17
2016-12-01T03:29:33.960Z,1020.16
2016-12-01T03:30:00.040Z,1020.09
2016-12-01T03:30:26.140Z,1020.12
2016-12-01T03:30:52.231Z,1020.1
2016-12-01T03:31:18.314Z,1020.08
2016-12-01T03:31:44.411Z,1020.12
2016-12-01T03:32:10.505Z,1020.08
2016-12-01T03:32:36.586Z,1020.08
2016-12-01T03:33:02.679Z,1020.12
2016-12-01T03:33:28.778Z,1020.13
2016-12-01T03:33:54.864Z,1020.17
2016-12-01T03:34:20.952Z,1020.16
2016-12-01T03:34:47.048Z,1020.15
2016-12-01T03:35:13.133Z,1020.11
2016-12-01T03:35:39.215Z,1020.09
2016-12-01T03:36:05.316Z,1020.14
2016-12-01T03:36:31.403Z,1020.12
2016-12-01T03:36:57.484Z,1020.13
2016-12-01T03:37:23.579Z,1020.09
2016-12-01T03:37:49.669Z,1020.11
2016-12-01T03:38:15.764Z,1020.12
2016-12-01T03:38:41.850Z,1020.12
2016-12-01T03:39:07.935Z,1020.13
2016-12-01T03:39:34.025Z,1020.14
2016-12-01T03:40:00.123Z,1020.14
2016-12-01T03:40:26.219Z,1020.12
2016-12-01T03:40:52.297Z,1020.16
2016-12-01T03:41:18.489Z,1020.18
2016-12-01T03:41:44.588Z,1020.16
2016-12-01T03:42:10.669Z,1020.07
2016-12-01T03:42:36.755Z,1020.07
2016-12-01T03:43:02.852Z,1020.16
2016-12-01T03:43:28.942Z,1020.13
2016-12-01T03:43:55.026Z,1020.19
2016-12-01T03:44:21.125Z,1020.19
2016-12-01T03:44:47.246Z,1020.1
2016-12-01T03:45:13.331Z,1020.13
2016-12-01T03:45:39.419Z,1020.14
2016-12-01T03:46:05.501Z,1020.11
2016-12-01T03:46:31.625Z,1020.11
2016-12-01T03:46:57.711Z,1020.03
2016-12-01T03:47:23.792Z,1020.09
2016-12-01T03:47:49.891Z,1020.08
2016-12-01T03:48:15.981Z,1020.12
2016-12-01T03:48:42.069Z,1020.1
2016-12-01T03:49:08.161Z,1020.07
2016-12-01T03:49:34.259Z,1020.06
2016-12-01T03:50:00.338Z,1020.11
2016-12-01T03:50:26.433Z,1020.1
2016-12-01T03:50:52.520Z,1020.16
2016-12-01T03:51:18.615Z,1020.12
2016-12-01T03:51:44.705Z,1020.19
2016-12-01T03:52:10.786Z,1020.14
2016-12-01T03:52:36.878Z,1020.18
2016-12-01T03:53:02.976Z,1020.13
2016-12-01T03:53:29.056Z,1020.17
2016-12-01T03:53:55.152Z,1020.17
2016-12-01T03:54:21.243Z,1020.22
2016-12-01T03:54:47.331Z,1020.22
2016-12-01T03:55:13.414Z,1020.15
2016-12-01T03:55:39.515Z,1020.16
2016-12-01T03:56:05.595Z,1020.17
2016-12-01T03:56:32.032Z,1020.22
2016-12-01T03:56:58.132Z,1020.17
2016-12-01T03:57:24.218Z,1020.15
2016-12-01T03:57:50.305Z,1020.13
2016-12-01T03:58:16.405Z,1020.18
2016-12-01T03:58:42.490Z,1020.14
2016-12-01T03:59:08.574Z,1020.17
2016-12-01T03:59:34.662Z,1020.15
2016-12-01T04:00:00.755Z,1020.13
2016-12-01T04:00:26.837Z,1020.1
2016-12-01T04:00:52.929Z,1020.18
2016-12-01T04:01:19.028Z,1020.13
2016-12-01T04:01:45.116Z,1020.1
2016-12-01T04:02:11.241Z,1020.12
2016-12-01T04:02:37.325Z,1020.13
2016-12-01T04:03:03.419Z,1020.11
2016-12-01T04:03:29.519Z,1020.12
2016-12-01T04:03:55.593Z,1020.07
2016-12-01T04:04:21.688Z,1020.12
2016-12-01T04:04:47.783Z,1020.08
2016-12-01T04:05:13.868Z,1020.11
2016-12-01T04:05:39.954Z,1020.04
2016-12-01T04:06:06.051Z,1020.09
2016-12-01T04:06:32.140Z,1020.11
2016-12-01T04:06:58.222Z,1020.05
2016-12-01T04:07:24.315Z,1020.09
2016-12-01T04:07:50.406Z,1020.06
2016-12-01T04:08:16.505Z,1020.05
2016-12-01T04:08:42.588Z,1020.02
2016-12-01T04:09:08.675Z,1020.01
2016-12-01T04:09:34.780Z,1020.02
2016-12-01T04:10:00.868Z,1020.01
2016-12-01T04:10:26.949Z,1020.02
2016-12-01T04:10:53.046Z,1020
2016-12-01T04:11:19.233Z,1019.99
2016-12-01T04:11:45.318Z,1019.95
2016-12-01T04:12:11.419Z,1019.96
2016-12-01T04:12:37.506Z,1019.95
2016-12-01T04:13:03.596Z,1019.96
2016-12-01T04:13:29.684Z,1020.01
2016-12-01T04:13:55.766Z,1019.89
2016-12-01T04:14:21.887Z,1019.95
2016-12-01T04:14:47.976Z,1019.95
2016-12-01T04:15:14.062Z,1019.98
2016-12-01T04:15:40.161Z,1019.97
2016-12-01T04:16:06.250Z,1020.03
2016-12-01T04:16:32.335Z,1019.97
2016-12-01T04:16:58.427Z,1019.97
2016-12-01T04:17:24.521Z,1020.02
2016-12-01T04:17:50.602Z,1020.02
2016-12-01T04:18:16.695Z,1019.99
2016-12-01T04:18:42.788Z,1020.04
2016-12-01T04:19:08.872Z,1020
2016-12-01T04:19:34.964Z,1020.01
2016-12-01T04:20:01.061Z,1019.99
2016-12-01T04:20:27.151Z,1020.04
2016-12-01T04:20:53.232Z,1020.02
2016-12-01T04:21:19.336Z,1019.98
2016-12-01T04:21:45.451Z,1019.98
2016-12-01T04:22:11.534Z,1019.96
2016-12-01T04:22:37.624Z,1019.94
2016-12-01T04:23:03.716Z,1019.92
2016-12-01T04:23:29.798Z,1019.96
2016-12-01T04:23:55.891Z,1019.97
2016-12-01T04:24:21.975Z,1020
2016-12-01T04:24:48.074Z,1019.98
2016-12-01T04:25:14.159Z,1020
2016-12-01T04:25:40.237Z,1020.01
2016-12-01T04:26:06.335Z,1019.96
2016-12-01T04:26:32.724Z,1019.94
2016-12-01T04:26:58.811Z,1019.93
2016-12-01T04:27:24.899Z,1019.93
2016-12-01T04:27:50.999Z,1019.94
2016-12-01T04:28:17.083Z,1019.96
2016-12-01T04:28:43.177Z,1020.01
2016-12-01T04:29:09.276Z,1020
2016-12-01T04:29:35.355Z,1019.97
2016-12-01T04:30:01.450Z,1020.01
2016-12-01T04:30:27.536Z,1019.99
2016-12-01T04:30:53.636Z,1020.02
2016-12-01T04:31:19.736Z,1020.05
2016-12-01T04:31:45.816Z,1020.11
2016-12-01T04:32:11.911Z,1020.06
2016-12-01T04:32:38.004Z,1020.06
2016-12-01T04:33:04.089Z,1020.09
2016-12-01T04:33:30.179Z,1020.09
2016-12-01T04:33:56.277Z,1020.12
2016-12-01T04:34:22.363Z,1020.07
2016-12-01T04:34:48.448Z,1020.07
2016-12-01T04:35:14.545Z,1020.1
2016-12-01T04:35:40.631Z,1020.09
2016-12-01T04:36:06.724Z,1020.06
2016-12-01T04:36:32.805Z,1020.04
2016-12-01T04:36:58.893Z,1020.05
2016-12-01T04:37:25.015Z,1020.04
2016-12-01T04:37:51.098Z,1020.08
2016-12-01T04:38:17.178Z,1020.02
2016-12-01T04:38:43.280Z,1020.02
2016-12-01T04:39:09.365Z,1020.01
2016-12-01T04:39:35.453Z,1019.98
2016-12-01T04:40:01.553Z,1019.99
2016-12-01T04:40:27.644Z,1019.99
2016-12-01T04:40:53.735Z,1019.98
2016-12-01T04:41:19.822Z,1019.98
2016-12-01T04:41:46.003Z,1019.92
2016-12-01T04:42:12.100Z,1019.93
2016-12-01T04:42:38.188Z,1019.94
2016-12-01T04:43:04.271Z,1019.92
2016-12-01T04:43:30.366Z,1019.92
2016-12-01T04:43:56.458Z,1019.86
2016-12-01T04:44:22.538Z,1019.89
2016-12-01T04:44:48.631Z,1019.83
2016-12-01T04:45:14.727Z,1019.82
2016-12-01T04:45:40.805Z,1019.81
2016-12-01T04:46:06.891Z,1019.8
2016-12-01T04:46:32.971Z,1019.77
2016-12-01T04:46:59.068Z,1019.83
2016-12-01T04:47:25.155Z,1019.73
2016-12-01T04:47:51.236Z,1019.77
2016-12-01T04:48:17.330Z,1019.77
2016-12-01T04:48:43.431Z,1019.75
2016-12-01T04:49:09.514Z,1019.77
2016-12-01T04:49:35.603Z,1019.75
2016-12-01T04:50:01.701Z,1019.73
2016-12-01T04:50:27.781Z,1019.78
2016-12-01T04:50:53.866Z,1019.69
2016-12-01T04:51:19.965Z,1019.74
2016-12-01T04:51:46.052Z,1019.78
2016-12-01T04:52:12.149Z,1019.79
2016-12-01T04:52:38.221Z,1019.69
2016-12-01T04:53:04.311Z,1019.73
2016-12-01T04:53:30.402Z,1019.73
2016-12-01T04:53:56.485Z,1019.72
2016-12-01T04:54:22.574Z,1019.68
2016-12-01T04:54:48.668Z,1019.7
2016-12-01T04:55:14.758Z,1019.73
2016-12-01T04:55:40.841Z,1019.69
2016-12-01T04:56:06.941Z,1019.68
2016-12-01T04:56:33.030Z,1019.64
2016-12-01T04:56:59.117Z,1019.64
2016-12-01T04:57:25.220Z,1019.57
2016-12-01T04:57:51.311Z,1019.58
2016-12-01T04:58:17.409Z,1019.61
2016-12-01T04:58:43.492Z,1019.63
2016-12-01T04:59:09.570Z,1019.64
2016-12-01T04:59:35.670Z,1019.6
2016-12-01T05:00:01.754Z,1019.59
2016-12-01T05:00:27.857Z,1019.54
2016-12-01T05:00:53.954Z,1019.58
2016-12-01T05:01:20.043Z,1019.58
2016-12-01T05:01:46.131Z,1019.56
2016-12-01T05:02:12.223Z,1019.55
2016-12-01T05:02:38.316Z,1019.55
2016-12-01T05:03:04.396Z,1019.6
2016-12-01T05:03:30.489Z,1019.51
2016-12-01T05:03:56.588Z,1019.49
2016-12-01T05:04:22.673Z,1019.46
2016-12-01T05:04:48.759Z,1019.47
2016-12-01T05:05:14.852Z,1019.45
2016-12-01T05:05:40.939Z,1019.51
2016-12-01T05:06:07.026Z,1019.44
2016-12-01T05:06:33.128Z,1019.4
2016-12-01T05:06:59.213Z,1019.46
2016-12-01T05:07:25.296Z,1019.45
2016-12-01T05:07:51.396Z,1019.44
2016-12-01T05:08:17.485Z,1019.54
2016-12-01T05:08:43.581Z,1019.48
2016-12-01T05:09:09.667Z,1019.46
2016-12-01T05:09:35.749Z,1019.45
2016-12-01T05:10:01.851Z,1019.48
2016-12-01T05:10:27.942Z,1019.43
2016-12-01T05:10:54.025Z,1019.44
2016-12-01T05:11:20.127Z,1019.45
2016-12-01T05:11:46.218Z,1019.41
2016-12-01T05:12:12.397Z,1019.38
2016-12-01T05:12:38.508Z,1019.47
2016-12-01T05:13:04.591Z,1019.45
2016-12-01T05:13:30.671Z,1019.39
2016-12-01T05:13:56.759Z,1019.41
2016-12-01T05:14:22.846Z,1019.5
2016-12-01T05:14:48.941Z,1019.41
2016-12-01T05:15:15.032Z,1019.43
2016-12-01T05:15:41.113Z,1019.46
2016-12-01T05:16:07.212Z,1019.39
2016-12-01T05:16:33.307Z,1019.46
2016-12-01T05:16:59.392Z,1019.46